createdAt,value
2018-09-09T00:02:01.214Z,19.8
2018-09-09T00:07:01.342Z,18.3
2018-09-09T00:12:01.188Z,18.4
2018-09-09T00:17:01.326Z,18.5
2018-09-09T00:22:06.257Z,17.9
2018-09-09T00:27:06.313Z,18.3
2018-09-09T00:32:01.274Z,18.6
2018-09-09T00:42:01.378Z,18.8
2018-09-09T00:47:01.332Z,19.3
2018-09-09T00:52:06.247Z,19.1
2018-09-09T00:57:06.258Z,19.1
2018-09-09T01:02:01.218Z,18.3
2018-09-09T01:07:01.310Z,17.4
2018-09-09T01:12:06.251Z,16.2
2018-09-09T01:17:06.388Z,15.3
2018-09-09T01:22:01.287Z,14.3
2018-09-09T01:27:01.358Z,13.7
2018-09-09T01:32:01.279Z,13.2
2018-09-09T01:37:01.415Z,12.9
2018-09-09T01:42:01.272Z,13.2
2018-09-09T01:47:06.244Z,12.5
2018-09-09T01:52:01.278Z,12.6
2018-09-09T01:57:06.241Z,12.6
2018-09-09T02:02:06.250Z,13.0
2018-09-09T02:07:01.313Z,13.0
2018-09-09T02:12:01.245Z,13.2
2018-09-09T02:17:01.311Z,12.9
2018-09-09T02:22:01.258Z,13.2
2018-09-09T02:27:01.393Z,13.4
2018-09-09T02:37:01.309Z,13.9
2018-09-09T02:42:01.240Z,13.5
2018-09-09T02:47:01.304Z,13.4
2018-09-09T02:52:01.253Z,13.2
2018-09-09T02:57:01.304Z,14.1
2018-09-09T03:02:01.278Z,14.6
2018-09-09T03:07:01.288Z,15.6
2018-09-09T03:12:01.278Z,16.0
2018-09-09T03:17:01.284Z,16.0
2018-09-09T03:27:01.332Z,15.2
2018-09-09T03:32:01.210Z,16.0
2018-09-09T03:37:01.373Z,16.1
2018-09-09T03:42:01.244Z,17.0
2018-09-09T03:47:01.309Z,17.2
2018-09-09T03:52:01.249Z,17.9
2018-09-09T03:57:01.305Z,17.2
2018-09-09T04:02:01.258Z,17.2
2018-09-09T04:07:01.312Z,17.1
2018-09-09T04:12:01.261Z,16.9
2018-09-09T04:18:01.362Z,16.9
2018-09-09T04:23:01.240Z,17.4
2018-09-09T04:28:01.237Z,18.1
2018-09-09T04:33:01.214Z,18.7
2018-09-09T04:38:01.304Z,19.0
2018-09-09T04:43:01.209Z,19.9
2018-09-09T04:48:01.303Z,20.7
2018-09-09T04:53:01.240Z,20.7
2018-09-09T04:58:01.245Z,21.4
2018-09-09T05:03:01.212Z,22.7
2018-09-09T05:08:01.319Z,23.0
2018-09-09T05:13:01.247Z,23.2
2018-09-09T05:18:01.310Z,24.9
2018-09-09T05:23:01.253Z,24.4
2018-09-09T05:28:01.363Z,24.5
2018-09-09T05:33:01.234Z,24.1
2018-09-09T05:38:01.302Z,24.8
2018-09-09T05:43:01.205Z,24.1
2018-09-09T05:48:01.300Z,24.7
2018-09-09T05:58:01.243Z,25.7
2018-09-09T06:03:01.247Z,25.1
2018-09-09T06:08:01.243Z,25.2
2018-09-09T06:13:01.266Z,26.0
2018-09-09T06:18:01.313Z,26.1
2018-09-09T06:23:01.248Z,25.4
2018-09-09T06:28:01.313Z,25.8
2018-09-09T06:33:01.244Z,26.0
2018-09-09T06:38:01.373Z,25.4
2018-09-09T06:43:01.249Z,25.4
2018-09-09T06:48:01.371Z,25.0
2018-09-09T06:53:01.223Z,24.9
2018-09-09T06:58:01.311Z,25.1
2018-09-09T07:03:01.253Z,25.5
2018-09-09T07:08:01.248Z,25.8
2018-09-09T07:13:01.217Z,26.2
2018-09-09T07:18:01.244Z,26.1
2018-09-09T07:23:01.222Z,25.6
2018-09-09T07:28:01.250Z,25.1
2018-09-09T07:33:01.231Z,24.7
2018-09-09T07:38:01.304Z,25.2
2018-09-09T07:43:01.208Z,25.5
2018-09-09T07:48:01.451Z,24.4
2018-09-09T07:53:01.236Z,24.0
2018-09-09T07:58:01.235Z,23.4
2018-09-09T08:03:01.237Z,22.7
2018-09-09T08:08:01.304Z,21.8
2018-09-09T08:13:01.241Z,23.0
2018-09-09T08:18:01.247Z,23.3
2018-09-09T08:23:01.248Z,23.3
2018-09-09T08:28:01.367Z,23.1
2018-09-09T08:33:01.243Z,24.1
2018-09-09T08:38:01.314Z,23.9
2018-09-09T08:43:01.241Z,24.6
2018-09-09T08:48:01.319Z,25.4
2018-09-09T08:53:06.270Z,25.9
2018-09-09T08:58:01.407Z,25.6
2018-09-09T09:03:01.261Z,25.7
2018-09-09T09:08:01.476Z,25.2
2018-09-09T09:13:01.234Z,24.1
2018-09-09T09:23:01.372Z,25.2
2018-09-09T09:28:01.304Z,24.9
2018-09-09T09:33:01.256Z,25.0
2018-09-09T09:38:01.380Z,26.4
2018-09-09T09:43:01.253Z,26.6
2018-09-09T09:48:01.328Z,26.4
2018-09-09T09:53:01.260Z,27.7
2018-09-09T09:58:01.325Z,27.8
2018-09-09T10:03:01.242Z,27.4
2018-09-09T10:08:01.239Z,27.2
2018-09-09T10:13:01.244Z,26.4
2018-09-09T10:18:01.373Z,25.0
2018-09-09T10:23:01.243Z,25.0
2018-09-09T10:28:01.242Z,25.8
2018-09-09T10:33:01.244Z,26.4
2018-09-09T10:38:01.313Z,26.6
2018-09-09T10:43:01.255Z,26.0
2018-09-09T10:48:01.383Z,24.4
2018-09-09T10:53:01.352Z,22.4
2018-09-09T10:58:01.329Z,20.0
2018-09-09T11:04:01.237Z,18.1
2018-09-09T11:09:01.304Z,16.8
2018-09-09T11:14:01.238Z,15.8
2018-09-09T11:19:01.381Z,14.8
2018-09-09T11:24:01.412Z,14.6
2018-09-09T11:29:01.384Z,14.5
2018-09-09T11:34:01.250Z,15.0
2018-09-09T11:39:01.319Z,14.7
2018-09-09T11:44:06.259Z,14.0
2018-09-09T11:49:01.346Z,13.3
2018-09-09T11:54:01.242Z,12.7
2018-09-09T11:59:01.372Z,11.8
2018-09-09T12:04:01.243Z,11.3
2018-09-09T12:09:01.308Z,10.7
2018-09-09T12:14:06.249Z,10.2
2018-09-09T12:19:06.314Z,9.3
2018-09-09T12:24:01.271Z,8.4
2018-09-09T12:29:01.246Z,8.0
2018-09-09T12:34:01.247Z,7.7
2018-09-09T12:44:01.313Z,8.1
2018-09-09T12:49:01.246Z,8.1
2018-09-09T12:54:01.236Z,8.0
2018-09-09T12:59:01.205Z,7.8
2018-09-09T13:04:01.239Z,7.2
2018-09-09T13:09:01.236Z,6.8
2018-09-09T13:14:01.277Z,6.4
2018-09-09T13:19:01.206Z,6.2
2018-09-09T13:24:01.220Z,5.8
2018-09-09T13:29:01.305Z,6.0
2018-09-09T13:39:01.312Z,6.0
2018-09-09T13:44:01.250Z,5.8
2018-09-09T13:49:06.444Z,5.9
2018-09-09T13:54:01.285Z,5.5
2018-09-09T13:59:06.305Z,5.2
2018-09-09T14:04:06.257Z,5.2
2018-09-09T14:09:01.382Z,5.2
2018-09-09T14:14:01.226Z,5.1
2018-09-09T14:19:01.379Z,4.9
2018-09-09T14:24:01.238Z,5.0
2018-09-09T14:29:01.370Z,4.9
2018-09-09T14:34:01.245Z,4.7
2018-09-09T14:44:01.264Z,5.1
2018-09-09T14:54:06.315Z,5.4
2018-09-09T14:59:06.379Z,5.8
2018-09-09T15:04:06.251Z,6.3
2018-09-09T15:09:01.292Z,6.4
2018-09-09T15:14:06.252Z,6.6
2018-09-09T15:19:06.254Z,7.2
2018-09-09T15:29:01.404Z,6.8
2018-09-09T15:34:06.234Z,6.8
2018-09-09T15:40:01.663Z,6.6
2018-09-09T15:45:01.328Z,6.7
2018-09-09T15:50:01.345Z,7.0
2018-09-09T15:55:01.274Z,7.3
2018-09-09T16:00:01.408Z,7.2
2018-09-09T16:05:01.282Z,6.8
2018-09-09T16:10:01.283Z,6.1
2018-09-09T16:15:06.255Z,5.7
2018-09-09T16:20:01.350Z,5.5
2018-09-09T16:30:01.242Z,5.5
2018-09-09T16:35:01.241Z,5.8
2018-09-09T16:45:01.306Z,5.6
2018-09-09T16:55:01.327Z,5.5
2018-09-09T17:00:01.312Z,5.7
2018-09-09T17:05:06.250Z,5.9
2018-09-09T17:10:06.325Z,6.1
2018-09-09T17:15:06.257Z,6.4
2018-09-09T17:20:06.309Z,6.5
2018-09-09T17:30:01.383Z,6.8
2018-09-09T17:40:01.310Z,6.7
2018-09-09T17:45:01.252Z,6.7
2018-09-09T17:50:01.303Z,6.5
2018-09-09T17:55:01.248Z,6.7
2018-09-09T18:00:01.388Z,6.9
2018-09-09T18:10:01.348Z,7.6
2018-09-09T18:15:01.277Z,7.9
2018-09-09T18:20:01.285Z,8.0
2018-09-09T18:25:01.285Z,8.5
2018-09-09T18:30:01.284Z,8.8
2018-09-09T18:40:06.377Z,9.2
2018-09-09T18:45:06.460Z,9.4
2018-09-09T18:50:06.546Z,9.3
2018-09-09T19:00:06.515Z,9.9
2018-09-09T19:05:01.281Z,10.3
2018-09-09T19:10:01.298Z,10.6
2018-09-09T19:15:06.265Z,11.6
2018-09-09T19:20:01.354Z,12.5
2018-09-09T19:25:06.289Z,13.0
2018-09-09T19:30:01.315Z,13.6
2018-09-09T19:35:01.286Z,14.8
2018-09-09T19:40:01.311Z,15.0
2018-09-09T19:45:01.245Z,15.0
2018-09-09T19:50:01.369Z,15.0
2018-09-09T19:55:06.239Z,15.2
2018-09-09T20:00:01.332Z,14.8
2018-09-09T20:05:01.236Z,14.6
2018-09-09T20:10:01.305Z,14.6
2018-09-09T20:15:01.256Z,15.2
2018-09-09T20:20:01.242Z,16.1
2018-09-09T20:30:01.374Z,17.1
2018-09-09T20:35:01.220Z,18.3
2018-09-09T20:40:01.321Z,18.5
2018-09-09T20:45:01.243Z,18.4
2018-09-09T20:50:01.312Z,18.2
2018-09-09T20:55:01.274Z,18.5
2018-09-09T21:00:06.385Z,17.9
2018-09-09T21:05:01.291Z,18.2
2018-09-09T21:10:01.335Z,17.8
2018-09-09T21:15:01.268Z,17.6
2018-09-09T21:20:01.404Z,17.4
2018-09-09T21:25:01.280Z,17.5
2018-09-09T21:30:06.305Z,16.6
2018-09-09T21:35:06.257Z,16.8
2018-09-09T21:40:06.382Z,17.7
2018-09-09T21:45:06.250Z,17.6
2018-09-09T21:50:01.315Z,17.4
2018-09-09T22:00:01.340Z,18.4
2018-09-09T22:05:06.247Z,18.2
2018-09-09T22:10:06.249Z,18.1
2018-09-09T22:15:06.239Z,17.8
2018-09-09T22:20:01.338Z,16.9
2018-09-09T22:25:01.262Z,16.5
2018-09-09T22:30:06.243Z,16.0
2018-09-09T22:35:06.318Z,15.6
2018-09-09T22:40:06.244Z,15.8
2018-09-09T22:45:06.242Z,15.8
2018-09-09T22:50:06.244Z,15.8
2018-09-09T22:55:01.277Z,15.6
2018-09-09T23:00:01.336Z,15.6
2018-09-09T23:05:01.286Z,14.9
2018-09-09T23:10:01.301Z,14.4
2018-09-09T23:15:01.284Z,14.1
2018-09-09T23:20:01.349Z,13.8
2018-09-09T23:25:01.283Z,13.0
2018-09-09T23:30:01.352Z,13.2
2018-09-09T23:35:01.278Z,13.2
2018-09-09T23:40:01.341Z,12.9
2018-09-09T23:45:01.269Z,13.1
2018-09-09T23:50:01.304Z,13.3
2018-09-09T23:55:01.242Z,13.2
